avis per tempestes more information blitzortung!


avis per Pluja more information rain snow radar


Visita la nostra xarxa de llocs de meteo:

Template documentation
and downloads

And another site



Thunderstorms From: 18-09-2018 20:00 Until: 19-09-2018 10:59 warning for: Thunderstorms Level: Yellow info button
Rain From: 18-09-2018 20:00 Until: 19-09-2018 10:59 warning for: Rain Level: Yellow info button

Pagina Historial Weather Underground text

Diari Resum Agost 12, 2017 Unitats:  Mètric    Imperial   Tant
« Previous Dia
SegĂźent Dia »
Diari Setmana Mensual Anual Personalitzada
  Maxima: Minima: Media:
Temperatura: -17.8 °C -8.6 °C -4.5 °C
Punt de rosada: -17.8 °C -12.6 °C -10.9 °C
Humitat: Humidity % 30 % 51 %
Wind Speed: 0 km/h 0 km/h 10 km/h
RĂ fegues de vent: 0 km/h - -
Vent:- - SSW
Pression baro: 0 hPa 34428.8 hPa -
Precipitacions: 0 mm    
Historical Graphs
 
 
Dades de taula per Agost 12, 2017
Temps Temperatura Punt de rosada Pression baro Vent Wind Speed RĂ fegues de vent Humitat Rainfall Rate (Hourly)
-17.8 °C -17.8 °C 0 hPa Calm     Humidity % 0 mm
00:00 -7.9 °C -10.3 °C 34533.8 hPa Calm     76 % 0 mm
00:03 -6.7 °C -10.6 °C 34567.7 hPa NE 6.3 km/h 6.3 km/h 64 % 0 mm
00:08 -6.7 °C -10.5 °C 34567.7 hPa NE 6 km/h   65 % 0 mm
00:10 -8 °C -10.3 °C 34533.8 hPa Calm     77 % 0 mm
00:20 -8.1 °C -10.3 °C 34496.6 hPa Calm     77 % 0 mm
00:30 -8 °C -10.3 °C 34496.6 hPa SSW 2.6 km/h 2.6 km/h 77 % 0 mm
00:40 -8.1 °C -10.4 °C 34533.8 hPa South 2.6 km/h 5.1 km/h 77 % 0 mm
00:50 -8.2 °C -10.4 °C 34533.8 hPa Calm   5.1 km/h 78 % 0 mm
01:00 -8.2 °C -10.4 °C 34533.8 hPa Calm     78 % 0 mm
01:10 -8.3 °C -10.4 °C 34496.6 hPa Calm   2.6 km/h 78 % 0 mm
01:20 -8.3 °C -10.5 °C 34533.8 hPa SSW 2.6 km/h 5.1 km/h 78 % 0 mm
01:30 -8.5 °C -10.5 °C 34533.8 hPa Calm   7.7 km/h 79 % 0 mm
01:40 -8.5 °C -10.4 °C 34533.8 hPa Calm     80 % 0 mm
01:50 -8.6 °C -10.5 °C 34533.8 hPa SW 5.1 km/h 5.1 km/h 80 % 0 mm
02:00 -8.6 °C -10.4 °C 34533.8 hPa Calm   2.6 km/h 81 % 0 mm
02:10 -8.6 °C -10.4 °C 34533.8 hPa SW 2.6 km/h 5.1 km/h 81 % 0 mm
02:20 -8.6 °C -10.4 °C 34567.7 hPa Calm     81 % 0 mm
02:30 -8.4 °C -10.1 °C 34567.7 hPa Calm   2.6 km/h 82 % 0 mm
02:40 -8.3 °C -10.1 °C 34567.7 hPa Calm   2.6 km/h 81 % 0 mm
02:50 -8.2 °C -10 °C 34567.7 hPa Calm     81 % 0 mm
03:00 -7.8 °C -9.7 °C 34567.7 hPa SE 2.6 km/h 5.1 km/h 80 % 0 mm
03:10 -7.6 °C -9.8 °C 34567.7 hPa South 2.6 km/h 5.1 km/h 78 % 0 mm
03:20 -7.7 °C -9.8 °C 34567.7 hPa SW 5.1 km/h 5.1 km/h 78 % 0 mm
03:30 -7.4 °C -9.6 °C 34567.7 hPa Calm   5.1 km/h 78 % 0 mm
03:40 -7.2 °C -9.5 °C 34567.7 hPa Calm   5.1 km/h 77 % 0 mm
03:50 -6.6 °C -9.1 °C 34567.7 hPa SSW 2.6 km/h 2.6 km/h 75 % 0 mm
04:00 -6.4 °C -9.2 °C 34567.7 hPa SSE 5.1 km/h 7.7 km/h 73 % 0 mm
04:10 -6.3 °C -9.3 °C 34601.5 hPa SE 5.1 km/h 5.1 km/h 71 % 0 mm
04:20 -6 °C -9.1 °C 34601.5 hPa SE 2.6 km/h 10.3 km/h 71 % 0 mm
04:30 -5.9 °C -9.2 °C 34601.5 hPa SE 2.6 km/h 7.7 km/h 69 % 0 mm
04:40 -5.7 °C -9.1 °C 34601.5 hPa ENE 7.7 km/h 7.7 km/h 68 % 0 mm
04:50 -5.7 °C -9.3 °C 34601.5 hPa NNE 5.1 km/h 7.7 km/h 67 % 0 mm
05:00 -5.6 °C -9.2 °C 34601.5 hPa NNE 5.1 km/h 12.9 km/h 67 % 0 mm
05:10 -5.2 °C -9.1 °C 34601.5 hPa NE 2.6 km/h 10.3 km/h 65 % 0 mm
05:20 -4.9 °C -8.9 °C 34601.5 hPa NE 2.6 km/h 7.7 km/h 64 % 0 mm
05:30 -5.2 °C -9.3 °C 34601.5 hPa NNE 7.7 km/h 10.3 km/h 63 % 0 mm
05:40 -4.9 °C -8.9 °C 34601.5 hPa NE 2.6 km/h 10.3 km/h 64 % 0 mm
05:50 -4.7 °C -8.8 °C 34601.5 hPa NE 5.1 km/h 7.7 km/h 63 % 0 mm
06:00 -4.4 °C -9 °C 34601.5 hPa NNE 5.1 km/h 7.7 km/h 60 % 0 mm
11:07 -4.8 °C -9.5 °C 34567.7 hPa SE 9 km/h 9 km/h 59 % 0 mm
11:12 -4.3 °C -9 °C 34567.7 hPa NNE 9 km/h 9 km/h 59 % 0 mm
11:17 -4.3 °C -9.3 °C 34567.7 hPa NE 9.3 km/h 9.3 km/h 57 % 0 mm
11:22 -4.2 °C -9.3 °C 34567.7 hPa NNW 9 km/h 9 km/h 57 % 0 mm
11:27 -4.1 °C -9.3 °C 34567.7 hPa NNE 11.9 km/h 11.9 km/h 56 % 0 mm
11:32 -4.1 °C -9.5 °C 34567.7 hPa ESE 15 km/h 15 km/h 55 % 0 mm
11:37 -3.8 °C -9.4 °C 34567.7 hPa ENE 9 km/h 9 km/h 54 % 0 mm
11:42 -3.6 °C -9.7 °C 34567.7 hPa SSW 11.1 km/h 11.1 km/h 51 % 0 mm
11:47 -3.7 °C -10.4 °C 34567.7 hPa ESE 11.9 km/h 11.9 km/h 47 % 0 mm
11:52 -3.6 °C -10.1 °C 34567.7 hPa South 6 km/h 6 km/h 48 % 0 mm
11:57 -3.2 °C -9.8 °C 34567.7 hPa WSW 9 km/h 9 km/h 48 % 0 mm
12:02 -3 °C -9.8 °C 34567.7 hPa SSW 20.3 km/h 20.3 km/h 47 % 0 mm
12:07 -3 °C -9.8 °C 34567.7 hPa SW 9 km/h 9 km/h 47 % 0 mm
12:12 -3.3 °C -10.2 °C 34567.7 hPa NE 11.9 km/h 11.9 km/h 46 % 0 mm
12:17 -3.3 °C -10.2 °C 34567.7 hPa ESE 6 km/h 6 km/h 46 % 0 mm
12:22 -3.1 °C -10.1 °C 34567.7 hPa NNW 6 km/h 6 km/h 46 % 0 mm
12:27 -2.8 °C -10.1 °C 34567.7 hPa West 6 km/h 6.3 km/h 45 % 0 mm
12:32 -2.6 °C -9.9 °C 34533.8 hPa WSW 14.5 km/h 14.5 km/h 44 % 0 mm
12:34 -2.7 °C -10.4 °C 34533.8 hPa WSW 15 km/h 15 km/h 42 % 0 mm
12:39 -2.6 °C -10.2 °C 34533.8 hPa WSW 12.7 km/h 12.7 km/h 43 % 0 mm
12:44 -2.5 °C -10.3 °C 34533.8 hPa WSW 15 km/h 15 km/h 42 % 0 mm
12:49 -2.7 °C -10.7 °C 34533.8 hPa West 15 km/h 15 km/h 41 % 0 mm
12:54 -2.4 °C -10.6 °C 34533.8 hPa WSW 6 km/h 6 km/h 40 % 0 mm
12:59 -2.7 °C -10.9 °C 34533.8 hPa WSW 6 km/h 6 km/h 40 % 0 mm
13:04 -2.6 °C -10.8 °C 34533.8 hPa WNW 9 km/h 9 km/h 40 % 0 mm
13:09 -2.1 °C -10.3 °C 34533.8 hPa East 9 km/h 9 km/h 40 % 0 mm
13:14 -2.1 °C -10.4 °C 34533.8 hPa SSE 9 km/h 9 km/h 40 % 0 mm
13:19 -1.9 °C -10.4 °C 34533.8 hPa South 9 km/h 9 km/h 39 % 0 mm
13:24 -2 °C -10.1 °C 34533.8 hPa SSE 15 km/h 15 km/h 41 % 0 mm
13:29 -2.7 °C -10.5 °C 34496.6 hPa East 17.9 km/h 17.9 km/h 42 % 0 mm
13:34 -3.1 °C -10.4 °C 34496.6 hPa ENE 19.6 km/h 19.6 km/h 44 % 0 mm
13:39 -2.9 °C -10.3 °C 34496.6 hPa ESE 23.8 km/h 23.8 km/h 44 % 0 mm
13:44 -3.1 °C -10.4 °C 34496.6 hPa ESE 26.9 km/h 26.9 km/h 44 % 0 mm
13:49 -3.3 °C -10.6 °C 34496.6 hPa SSE 23.8 km/h 23.8 km/h 44 % 0 mm
13:54 -3.1 °C -10.3 °C 34496.6 hPa SE 15 km/h 15 km/h 45 % 0 mm
13:59 -2.9 °C -10.1 °C 34533.8 hPa South 11.9 km/h 11.9 km/h 45 % 0 mm
14:04 -2.7 °C -10.1 °C 34533.8 hPa SW 15 km/h 15 km/h 44 % 0 mm
14:09 -2.3 °C -9.9 °C 34533.8 hPa SSW 20.9 km/h 20.9 km/h 43 % 0 mm
14:14 -2.3 °C -10.2 °C 34533.8 hPa SSW 15 km/h 15 km/h 42 % 0 mm
14:19 -2.4 °C -10 °C 34533.8 hPa WNW 11.9 km/h 11.9 km/h 43 % 0 mm
14:24 -1.9 °C -9.8 °C 34533.8 hPa SW 20.9 km/h 20.9 km/h 42 % 0 mm
14:29 -1.9 °C -9.8 °C 34496.6 hPa WNW 11.9 km/h 11.9 km/h 42 % 0 mm
14:34 -1.9 °C -9.8 °C 34496.6 hPa SW 9 km/h 9 km/h 42 % 0 mm
14:39 -1.4 °C -9.7 °C 34496.6 hPa WSW 15.3 km/h 15.3 km/h 40 % 0 mm
14:44 -1.6 °C -9.9 °C 34496.6 hPa NW 9 km/h 9 km/h 40 % 0 mm
14:49 -1.9 °C -9.9 °C 34496.6 hPa West 10.3 km/h 10.3 km/h 41 % 0 mm
14:54 -1.7 °C -10.2 °C 34496.6 hPa SSW 9 km/h 9 km/h 39 % 0 mm
14:59 -2.2 °C -10.7 °C 34496.6 hPa ENE 15 km/h 15 km/h 39 % 0 mm
15:04 -1.7 °C -10.7 °C 34496.6 hPa SW 15 km/h 15 km/h 37 % 0 mm
15:09 -1.8 °C -10.7 °C 34496.6 hPa SSW 17.9 km/h 17.9 km/h 37 % 0 mm
15:14 -2.1 °C -11.1 °C 34496.6 hPa ESE 9.3 km/h 9.3 km/h 37 % 0 mm
15:19 -2.2 °C -11.1 °C 34496.6 hPa South 11.9 km/h 11.9 km/h 37 % 0 mm
15:24 -1.7 °C -10.7 °C 34496.6 hPa NW 6 km/h   37 % 0 mm
15:29 -2.2 °C -10.7 °C 34496.6 hPa West 15 km/h 15 km/h 39 % 0 mm
15:34 -1.9 °C -10.4 °C 34496.6 hPa SSW 11.9 km/h 14 km/h 39 % 0 mm
15:39 -1.8 °C -11 °C 34496.6 hPa SSE 15 km/h 15 km/h 36 % 0 mm
15:44 -1.5 °C -10.9 °C 34496.6 hPa SSE 9 km/h 9 km/h 35 % 0 mm
15:49 -1.8 °C -10.7 °C 34496.6 hPa WSW 11.9 km/h 11.9 km/h 37 % 0 mm
15:54 -1.6 °C -11.3 °C 34496.6 hPa SW 11.9 km/h 11.9 km/h 34 % 0 mm
15:55 -1.5 °C -10.9 °C 34496.6 hPa SSE 17.9 km/h 17.9 km/h 35 % 0 mm
16:00 -1.5 °C -11.2 °C 34462.7 hPa SW 22.5 km/h 22.5 km/h 34 % 0 mm
16:05 -1.6 °C -11.5 °C 34462.7 hPa East 20.9 km/h 20.9 km/h 33 % 0 mm
16:10 -1.3 °C -11.6 °C 34462.7 hPa South 20.9 km/h 20.9 km/h 32 % 0 mm
16:15 -1.3 °C -11.6 °C 34462.7 hPa West 15 km/h 15 km/h 32 % 0 mm
16:20 -1.6 °C -12.1 °C 34462.7 hPa SW 26.9 km/h 26.9 km/h 31 % 0 mm
16:25 -1.7 °C -12.1 °C 34462.7 hPa SW 25.4 km/h 25.4 km/h 31 % 0 mm
16:30 -1.7 °C -12.1 °C 34462.7 hPa SW 18.3 km/h 18.3 km/h 31 % 0 mm
16:35 -1.6 °C -12.3 °C 34462.7 hPa South 20.9 km/h 20.9 km/h 30 % 0 mm
16:40 -1.6 °C -12.1 °C 34462.7 hPa South 20.9 km/h 20.9 km/h 31 % 0 mm
16:45 -1.7 °C -12.1 °C 34462.7 hPa SW 22 km/h 22 km/h 31 % 0 mm
16:50 -1.8 °C -12.3 °C 34462.7 hPa West 20.9 km/h 20.9 km/h 31 % 0 mm
16:55 -1.6 °C -12.1 °C 34462.7 hPa WSW 20.9 km/h 20.9 km/h 31 % 0 mm
17:00 -1.7 °C -12.2 °C 34462.7 hPa WSW 11.9 km/h 11.9 km/h 31 % 0 mm
17:05 -1.7 °C -12.1 °C 34462.7 hPa SW 20.9 km/h 20.9 km/h 31 % 0 mm
17:10 -1.6 °C -12.1 °C 34462.7 hPa WSW 11.9 km/h 11.9 km/h 31 % 0 mm
17:15 -1.8 °C -12.3 °C 34462.7 hPa WSW 15 km/h 15 km/h 31 % 0 mm
17:20 -2.1 °C -12.6 °C 34462.7 hPa SSE 15 km/h 15 km/h 31 % 0 mm
17:25 -1.9 °C -12.1 °C 34462.7 hPa West 11.9 km/h 11.9 km/h 32 % 0 mm
17:30 -1.9 °C -11.8 °C 34462.7 hPa SW 20.9 km/h 20.9 km/h 33 % 0 mm
17:35 -2.1 °C -11.9 °C 34462.7 hPa SW 15 km/h 15 km/h 33 % 0 mm
17:40 -2 °C -11.9 °C 34462.7 hPa West 20.9 km/h 20.9 km/h 33 % 0 mm
17:45 -2.1 °C -11.7 °C 34462.7 hPa WSW 15 km/h 15 km/h 34 % 0 mm
17:50 -2.1 °C -11.8 °C 34462.7 hPa SW 17.9 km/h 17.9 km/h 34 % 0 mm
17:55 -2.3 °C -11.9 °C 34462.7 hPa SSW 15 km/h 15 km/h 34 % 0 mm
18:00 -2.3 °C -11.9 °C 34462.7 hPa SSW 17.9 km/h 17.9 km/h 34 % 0 mm
18:05 -2.3 °C -11.7 °C 34462.7 hPa SSW 17.9 km/h 17.9 km/h 35 % 0 mm
18:10 -2.3 °C -11.7 °C 34462.7 hPa SW 23.8 km/h 23.8 km/h 35 % 0 mm
18:15 -2.3 °C -11.7 °C 34428.8 hPa SW 15 km/h 15 km/h 35 % 0 mm
18:20 -2.4 °C -11.5 °C 34428.8 hPa SSW 15 km/h 15 km/h 36 % 0 mm
18:25 -2.6 °C -11.9 °C 34428.8 hPa South 20.9 km/h 20.9 km/h 35 % 0 mm
18:30 -2.5 °C -11.6 °C 34462.7 hPa SW 15 km/h 15 km/h 36 % 0 mm
18:35 -2.4 °C -11.6 °C 34462.7 hPa SSE 9.8 km/h 9.8 km/h 36 % 0 mm
18:40 -2.3 °C -11.5 °C 34462.7 hPa SW 18.3 km/h 18.3 km/h 36 % 0 mm
18:45 -2.5 °C -11.6 °C 34462.7 hPa SSW 11.9 km/h 11.9 km/h 36 % 0 mm
18:50 -2.7 °C -11.8 °C 34462.7 hPa SW 15 km/h 15 km/h 36 % 0 mm
18:55 -2.9 °C -11.7 °C 34462.7 hPa SW 17.9 km/h 17.9 km/h 37 % 0 mm
19:00 -2.9 °C -11.6 °C 34462.7 hPa South 11.9 km/h 11.9 km/h 38 % 0 mm
19:05 -2.8 °C -11.6 °C 34462.7 hPa South 11.9 km/h 11.9 km/h 37 % 0 mm
19:10 -2.8 °C -11.6 °C 34462.7 hPa West 11.9 km/h 11.9 km/h 37 % 0 mm
19:15 -2.8 °C -11.4 °C 34462.7 hPa SW 9 km/h 9.3 km/h 38 % 0 mm
19:20 -2.9 °C -11.3 °C 34462.7 hPa SSW 6.3 km/h 6.3 km/h 39 % 0 mm
19:25 -3.1 °C -11.4 °C 34462.7 hPa SW 15 km/h 15 km/h 39 % 0 mm
19:30 -3.1 °C -11.5 °C 34462.7 hPa SW 9 km/h 9 km/h 39 % 0 mm
19:35 -3.2 °C -11.6 °C 34462.7 hPa South 11.9 km/h 11.9 km/h 39 % 0 mm
19:40 -3.4 °C -11.7 °C 34462.7 hPa WSW 15 km/h 15 km/h 39 % 0 mm
19:45 -3.6 °C -11.9 °C 34496.6 hPa SW 15 km/h 15 km/h 39 % 0 mm
19:50 -3.6 °C -11.7 °C 34496.6 hPa SSW 23.8 km/h 23.8 km/h 40 % 0 mm
19:55 -3.8 °C -11.9 °C 34496.6 hPa SW 20.9 km/h 20.9 km/h 40 % 0 mm
20:00 -3.9 °C -11.8 °C 34462.7 hPa SW 11.9 km/h 11.9 km/h 41 % 0 mm
20:05 -4 °C -11.7 °C 34462.7 hPa SW 15 km/h 15 km/h 42 % 0 mm
20:10 -4.1 °C -11.8 °C 34462.7 hPa SW 15 km/h 15 km/h 42 % 0 mm
20:15 -4.3 °C -11.7 °C 34462.7 hPa WSW 20.9 km/h 20.9 km/h 43 % 0 mm
20:20 -4.4 °C -11.8 °C 34462.7 hPa SSW 15 km/h 15 km/h 43 % 0 mm
20:25 -4.4 °C -11.7 °C 34462.7 hPa SSW 20.9 km/h 20.9 km/h 44 % 0 mm
20:30 -4.6 °C -11.6 °C 34462.7 hPa SW 11.9 km/h 11.9 km/h 45 % 0 mm
20:35 -4.6 °C -11.6 °C 34462.7 hPa SW 9 km/h 9.3 km/h 45 % 0 mm
20:40 -4.7 °C -11.7 °C 34462.7 hPa NW 15 km/h 15 km/h 45 % 0 mm
20:45 -4.8 °C -11.7 °C 34462.7 hPa SW 15 km/h 15 km/h 46 % 0 mm
20:50 -4.9 °C -11.7 °C 34462.7 hPa West 15 km/h 15 km/h 46 % 0 mm
20:55 -5 °C -11.6 °C 34462.7 hPa SSW 11.9 km/h 11.9 km/h 47 % 0 mm
21:00 -5.1 °C -11.5 °C 34496.6 hPa South 17.9 km/h 17.9 km/h 48 % 0 mm
21:05 -5.2 °C -11.6 °C 34496.6 hPa SW 15 km/h 15 km/h 48 % 0 mm
21:10 -5.2 °C -11.6 °C 34496.6 hPa SW 11.9 km/h 11.9 km/h 48 % 0 mm
21:11 -5.2 °C -11.6 °C 34496.6 hPa WSW 9.8 km/h 9.8 km/h 48 % 0 mm
21:15 -7.4 °C -11.2 °C 34533.8 hPa WSW 2.6 km/h 7.7 km/h 65 % 0 mm
21:16 -5.3 °C -11.6 °C 34496.6 hPa SSW 15 km/h 15 km/h 49 % 0 mm
21:21 -5.3 °C -11.6 °C 34496.6 hPa SSW 11.9 km/h 11.9 km/h 49 % 0 mm
21:25 -7.5 °C -10.9 °C 34533.8 hPa Calm   5.1 km/h 67 % 0 mm
21:26 -5.4 °C -11.4 °C 34496.6 hPa South 11.9 km/h 11.9 km/h 50 % 0 mm
21:31 -5.4 °C -11.5 °C 34496.6 hPa SW 9 km/h 9 km/h 50 % 0 mm
21:35 -7.6 °C -11 °C 34496.6 hPa Calm     67 % 0 mm
21:36 -5.5 °C -11.4 °C 34496.6 hPa SW 11.9 km/h 11.9 km/h 51 % 0 mm
21:41 -5.6 °C -11.4 °C 34496.6 hPa SW 11.1 km/h 11.1 km/h 51 % 0 mm
21:45 -7.5 °C -10.8 °C 34496.6 hPa SE 2.6 km/h 5.1 km/h 68 % 0 mm
21:46 -5.6 °C -11.5 °C 34496.6 hPa SW 15 km/h 15 km/h 51 % 0 mm
21:51 -5.6 °C -11.3 °C 34496.6 hPa WSW 11.9 km/h 11.9 km/h 52 % 0 mm
21:55 -7.4 °C -10.8 °C 34496.6 hPa NE 2.6 km/h 2.6 km/h 68 % 0 mm
21:56 -5.7 °C -11.4 °C 34496.6 hPa SSW 9 km/h 9 km/h 52 % 0 mm
22:01 -5.7 °C -11.3 °C 34533.8 hPa SW 12.2 km/h 12.2 km/h 53 % 0 mm
22:05 -7.5 °C -10.8 °C 34496.6 hPa NNE 2.6 km/h 2.6 km/h 68 % 0 mm
22:06 -5.7 °C -11.3 °C 34533.8 hPa WSW 15 km/h 15 km/h 53 % 0 mm
22:11 -5.8 °C -11.2 °C 34533.8 hPa WSW 11.9 km/h 11.9 km/h 54 % 0 mm
22:15 -7.6 °C -10.9 °C 34496.6 hPa Calm   5.1 km/h 68 % 0 mm
22:16 -5.8 °C -11.2 °C 34533.8 hPa SW 6 km/h 6.3 km/h 54 % 0 mm
22:21 -5.9 °C -11.3 °C 34533.8 hPa WSW 15 km/h 15 km/h 54 % 0 mm
22:25 -7.8 °C -11.3 °C 34496.6 hPa WSW 5.1 km/h 5.1 km/h 67 % 0 mm
22:26 -5.9 °C -11.2 °C 34533.8 hPa SW 6.3 km/h 6.3 km/h 55 % 0 mm
22:31 -5.9 °C -11.2 °C 34533.8 hPa SSW 9 km/h 9 km/h 55 % 0 mm
22:35 -7.8 °C -11.2 °C 34496.6 hPa Calm     68 % 0 mm
22:36 -6 °C -11.2 °C 34533.8 hPa West 6 km/h 6.3 km/h 55 % 0 mm
22:41 -6 °C -11.1 °C 34533.8 hPa WSW 6.3 km/h 6.3 km/h 56 % 0 mm
22:45 -7.8 °C -11.2 °C 34496.6 hPa Calm     68 % 0 mm
22:46 -6.1 °C -11.1 °C 34533.8 hPa WSW 6 km/h 6 km/h 56 % 0 mm
22:51 -6.1 °C -11.1 °C 34533.8 hPa WSW 6 km/h 6 km/h 56 % 0 mm
22:55 -7.7 °C -11.1 °C 34496.6 hPa WSW 2.6 km/h 5.1 km/h 68 % 0 mm
22:56 -6.1 °C -11 °C 34533.8 hPa SW 6 km/h 6 km/h 57 % 0 mm
23:01 -6.1 °C -11 °C 34533.8 hPa SW 6 km/h 6 km/h 57 % 0 mm
23:05 -7.7 °C -11.1 °C 34496.6 hPa Calm   2.6 km/h 68 % 0 mm
23:06 -6.1 °C -11 °C 34533.8 hPa Calm     57 % 0 mm
23:11 -6.2 °C -11.1 °C 34533.8 hPa West 6 km/h 6 km/h 57 % 0 mm
23:15 -7.7 °C -10.9 °C 34496.6 hPa Calm     69 % 0 mm
23:16 -6.2 °C -11 °C 34533.8 hPa Calm     58 % 0 mm
23:21 -6.2 °C -11 °C 34533.8 hPa SW 3.1 km/h 3.1 km/h 58 % 0 mm
23:25 -7.8 °C -11 °C 34496.6 hPa Calm     69 % 0 mm
23:26 -6.2 °C -11 °C 34533.8 hPa Calm     58 % 0 mm
23:31 -6.3 °C -11.1 °C 34533.8 hPa NNE 4.2 km/h 4.2 km/h 58 % 0 mm
23:35 -7.8 °C -11.1 °C 34462.7 hPa Calm     69 % 0 mm
23:36 -6.3 °C -10.9 °C 34533.8 hPa NNE 3.1 km/h   59 % 0 mm
23:41 -6.3 °C -10.9 °C 34533.8 hPa Calm     59 % 0 mm
23:45 -8.2 °C -11.5 °C 34462.7 hPa Calm   5.1 km/h 68 % 0 mm
23:46 -6.4 °C -11.2 °C 34533.8 hPa Calm     58 % 0 mm
23:51 -6.4 °C -11 °C 34533.8 hPa Calm     59 % 0 mm
23:55 -8.2 °C -11.3 °C 34496.6 hPa Calm     69 % 0 mm
23:56 -6.4 °C -11 °C 34533.8 hPa Calm     59 % 0 mm
Meteo Sesrovires
Elogis d' Weather Underground - 1.5 mb

Guio original per  Jim McMurry - jmcmurry@mwt.net Adaptat per a la plantilla per  Wim van der Kuil - Leuven-Template.eu

Trobareu la nostra informacio del temps tambe a:

Weather Underground

AWEKAS